sensor_id;sensor_type;location;lat;lon;timestamp;P1;durP1;ratioP1;P2;durP2;ratioP2
8232;SDS011;4157;48.074;9.952;2024-03-06T00:01:20;13.63;;;10.43;;
8232;SDS011;4157;48.074;9.952;2024-03-06T00:03:48;11.68;;;10.10;;
8232;SDS011;4157;48.074;9.952;2024-03-06T00:06:16;13.25;;;10.07;;
8232;SDS011;4157;48.074;9.952;2024-03-06T00:08:45;12.63;;;11.20;;
8232;SDS011;4157;48.074;9.952;2024-03-06T00:11:12;11.63;;;10.18;;
8232;SDS011;4157;48.074;9.952;2024-03-06T00:13:41;12.65;;;10.45;;
8232;SDS011;4157;48.074;9.952;2024-03-06T00:16:08;12.10;;;10.25;;
8232;SDS011;4157;48.074;9.952;2024-03-06T00:18:36;13.02;;;10.85;;
8232;SDS011;4157;48.074;9.952;2024-03-06T00:21:04;11.07;;;9.90;;
8232;SDS011;4157;48.074;9.952;2024-03-06T00:23:32;11.98;;;10.30;;
8232;SDS011;4157;48.074;9.952;2024-03-06T00:26:02;11.20;;;10.00;;
8232;SDS011;4157;48.074;9.952;2024-03-06T00:28:30;11.25;;;9.95;;
8232;SDS011;4157;48.074;9.952;2024-03-06T00:30:58;11.45;;;10.25;;
8232;SDS011;4157;48.074;9.952;2024-03-06T00:33:25;12.18;;;10.13;;
8232;SDS011;4157;48.074;9.952;2024-03-06T00:35:53;11.40;;;10.07;;
8232;SDS011;4157;48.074;9.952;2024-03-06T00:38:20;10.88;;;9.77;;
8232;SDS011;4157;48.074;9.952;2024-03-06T00:40:48;10.98;;;9.75;;
8232;SDS011;4157;48.074;9.952;2024-03-06T00:43:17;10.57;;;9.25;;
8232;SDS011;4157;48.074;9.952;2024-03-06T00:45:45;10.32;;;9.15;;
8232;SDS011;4157;48.074;9.952;2024-03-06T00:48:13;10.00;;;8.85;;
8232;SDS011;4157;48.074;9.952;2024-03-06T00:50:41;10.32;;;9.05;;
8232;SDS011;4157;48.074;9.952;2024-03-06T00:53:09;10.73;;;9.38;;
8232;SDS011;4157;48.074;9.952;2024-03-06T00:55:36;11.52;;;9.60;;
8232;SDS011;4157;48.074;9.952;2024-03-06T00:58:05;11.50;;;9.73;;
8232;SDS011;4157;48.074;9.952;2024-03-06T01:00:34;11.75;;;9.25;;
8232;SDS011;4157;48.074;9.952;2024-03-06T01:03:02;11.60;;;9.45;;
8232;SDS011;4157;48.074;9.952;2024-03-06T01:05:30;12.43;;;8.93;;
8232;SDS011;4157;48.074;9.952;2024-03-06T01:07:58;11.45;;;9.65;;
8232;SDS011;4157;48.074;9.952;2024-03-06T01:10:25;13.02;;;10.68;;
8232;SDS011;4157;48.074;9.952;2024-03-06T01:12:53;11.60;;;10.18;;
8232;SDS011;4157;48.074;9.952;2024-03-06T01:15:21;12.57;;;10.70;;
8232;SDS011;4157;48.074;9.952;2024-03-06T01:17:50;12.23;;;10.80;;
8232;SDS011;4157;48.074;9.952;2024-03-06T01:20:17;12.55;;;11.02;;
8232;SDS011;4157;48.074;9.952;2024-03-06T01:22:45;12.73;;;10.40;;
8232;SDS011;4157;48.074;9.952;2024-03-06T01:25:13;11.52;;;10.40;;
8232;SDS011;4157;48.074;9.952;2024-03-06T01:27:40;11.68;;;10.32;;
8232;SDS011;4157;48.074;9.952;2024-03-06T01:30:08;10.85;;;9.75;;
8232;SDS011;4157;48.074;9.952;2024-03-06T01:32:36;11.85;;;10.65;;
8232;SDS011;4157;48.074;9.952;2024-03-06T01:35:06;11.45;;;10.20;;
8232;SDS011;4157;48.074;9.952;2024-03-06T01:37:34;11.75;;;10.25;;
8232;SDS011;4157;48.074;9.952;2024-03-06T01:40:02;12.13;;;9.73;;
8232;SDS011;4157;48.074;9.952;2024-03-06T01:42:31;12.18;;;10.98;;
8232;SDS011;4157;48.074;9.952;2024-03-06T01:44:59;11.55;;;10.30;;
8232;SDS011;4157;48.074;9.952;2024-03-06T01:47:26;11.90;;;10.27;;
8232;SDS011;4157;48.074;9.952;2024-03-06T01:49:54;13.00;;;11.50;;
8232;SDS011;4157;48.074;9.952;2024-03-06T01:52:23;11.13;;;9.95;;
8232;SDS011;4157;48.074;9.952;2024-03-06T01:54:51;13.07;;;11.38;;
8232;SDS011;4157;48.074;9.952;2024-03-06T01:57:19;12.35;;;11.05;;
8232;SDS011;4157;48.074;9.952;2024-03-06T01:59:47;11.88;;;10.68;;
8232;SDS011;4157;48.074;9.952;2024-03-06T02:02:15;12.15;;;10.93;;
8232;SDS011;4157;48.074;9.952;2024-03-06T02:04:43;12.13;;;10.88;;
8232;SDS011;4157;48.074;9.952;2024-03-06T02:07:11;12.02;;;10.70;;
8232;SDS011;4157;48.074;9.952;2024-03-06T02:09:41;15.02;;;12.05;;
8232;SDS011;4157;48.074;9.952;2024-03-06T02:12:10;12.20;;;10.88;;
8232;SDS011;4157;48.074;9.952;2024-03-06T02:14:38;11.52;;;10.32;;
8232;SDS011;4157;48.074;9.952;2024-03-06T02:17:05;13.60;;;12.20;;
8232;SDS011;4157;48.074;9.952;2024-03-06T02:19:37;13.35;;;11.70;;
8232;SDS011;4157;48.074;9.952;2024-03-06T02:22:06;12.43;;;10.30;;
8232;SDS011;4157;48.074;9.952;2024-03-06T02:24:34;12.45;;;11.15;;
8232;SDS011;4157;48.074;9.952;2024-03-06T02:27:02;11.63;;;10.38;;
8232;SDS011;4157;48.074;9.952;2024-03-06T02:29:31;13.18;;;11.23;;
8232;SDS011;4157;48.074;9.952;2024-03-06T02:31:59;12.80;;;11.40;;
8232;SDS011;4157;48.074;9.952;2024-03-06T02:34:28;13.48;;;12.00;;
8232;SDS011;4157;48.074;9.952;2024-03-06T02:36:56;12.65;;;10.57;;
8232;SDS011;4157;48.074;9.952;2024-03-06T02:39:25;12.57;;;11.23;;
8232;SDS011;4157;48.074;9.952;2024-03-06T02:41:53;14.48;;;12.98;;
8232;SDS011;4157;48.074;9.952;2024-03-06T02:44:20;14.30;;;11.63;;
8232;SDS011;4157;48.074;9.952;2024-03-06T02:46:48;13.23;;;10.90;;
8232;SDS011;4157;48.074;9.952;2024-03-06T02:49:16;13.18;;;11.30;;
8232;SDS011;4157;48.074;9.952;2024-03-06T02:51:44;13.85;;;11.55;;
8232;SDS011;4157;48.074;9.952;2024-03-06T02:54:11;12.32;;;9.75;;
8232;SDS011;4157;48.074;9.952;2024-03-06T02:56:40;11.52;;;10.10;;
8232;SDS011;4157;48.074;9.952;2024-03-06T02:59:08;12.00;;;9.77;;
8232;SDS011;4157;48.074;9.952;2024-03-06T03:01:36;9.88;;;8.45;;
8232;SDS011;4157;48.074;9.952;2024-03-06T03:04:04;11.23;;;9.57;;
8232;SDS011;4157;48.074;9.952;2024-03-06T03:06:33;11.18;;;9.05;;
8232;SDS011;4157;48.074;9.952;2024-03-06T03:09:00;10.45;;;8.55;;
8232;SDS011;4157;48.074;9.952;2024-03-06T03:11:29;12.63;;;9.35;;
8232;SDS011;4157;48.074;9.952;2024-03-06T03:13:59;11.55;;;9.60;;
8232;SDS011;4157;48.074;9.952;2024-03-06T03:16:26;11.65;;;9.23;;
8232;SDS011;4157;48.074;9.952;2024-03-06T03:18:55;12.07;;;8.43;;
8232;SDS011;4157;48.074;9.952;2024-03-06T03:21:23;12.70;;;8.55;;
8232;SDS011;4157;48.074;9.952;2024-03-06T03:23:50;9.60;;;7.32;;
8232;SDS011;4157;48.074;9.952;2024-03-06T03:26:18;9.93;;;7.78;;
8232;SDS011;4157;48.074;9.952;2024-03-06T03:28:46;10.30;;;7.90;;
8232;SDS011;4157;48.074;9.952;2024-03-06T03:31:15;11.63;;;9.18;;
8232;SDS011;4157;48.074;9.952;2024-03-06T03:33:43;9.82;;;7.97;;
8232;SDS011;4157;48.074;9.952;2024-03-06T03:36:10;10.55;;;8.38;;
8232;SDS011;4157;48.074;9.952;2024-03-06T03:38:38;10.25;;;8.18;;
8232;SDS011;4157;48.074;9.952;2024-03-06T03:41:07;9.98;;;8.82;;
8232;SDS011;4157;48.074;9.952;2024-03-06T03:43:34;12.30;;;9.40;;
8232;SDS011;4157;48.074;9.952;2024-03-06T03:46:02;11.15;;;8.90;;
8232;SDS011;4157;48.074;9.952;2024-03-06T03:48:33;11.57;;;8.75;;
8232;SDS011;4157;48.074;9.952;2024-03-06T03:51:02;10.95;;;8.45;;
8232;SDS011;4157;48.074;9.952;2024-03-06T03:53:30;10.30;;;8.55;;
8232;SDS011;4157;48.074;9.952;2024-03-06T03:55:58;9.45;;;7.28;;
8232;SDS011;4157;48.074;9.952;2024-03-06T03:58:26;10.52;;;8.60;;
8232;SDS011;4157;48.074;9.952;2024-03-06T04:00:53;10.57;;;8.00;;
8232;SDS011;4157;48.074;9.952;2024-03-06T04:03:21;9.13;;;7.90;;
8232;SDS011;4157;48.074;9.952;2024-03-06T04:05:50;11.48;;;7.97;;
8232;SDS011;4157;48.074;9.952;2024-03-06T04:08:18;9.15;;;7.90;;
8232;SDS011;4157;48.074;9.952;2024-03-06T04:10:46;10.52;;;7.45;;
8232;SDS011;4157;48.074;9.952;2024-03-06T04:13:14;10.52;;;8.65;;
8232;SDS011;4157;48.074;9.952;2024-03-06T04:15:43;10.00;;;7.97;;
8232;SDS011;4157;48.074;9.952;2024-03-06T04:18:10;10.32;;;8.30;;
8232;SDS011;4157;48.074;9.952;2024-03-06T04:20:38;11.73;;;8.48;;
8232;SDS011;4157;48.074;9.952;2024-03-06T04:23:07;10.20;;;8.20;;
8232;SDS011;4157;48.074;9.952;2024-03-06T04:25:35;11.23;;;8.60;;
8232;SDS011;4157;48.074;9.952;2024-03-06T04:28:03;10.23;;;8.57;;
8232;SDS011;4157;48.074;9.952;2024-03-06T04:30:33;11.55;;;9.25;;
8232;SDS011;4157;48.074;9.952;2024-03-06T04:33:00;12.05;;;9.73;;
8232;SDS011;4157;48.074;9.952;2024-03-06T04:35:28;13.13;;;9.35;;
8232;SDS011;4157;48.074;9.952;2024-03-06T04:37:56;12.27;;;9.38;;
8232;SDS011;4157;48.074;9.952;2024-03-06T04:40:25;11.10;;;9.60;;
8232;SDS011;4157;48.074;9.952;2024-03-06T04:42:54;11.55;;;9.38;;
8232;SDS011;4157;48.074;9.952;2024-03-06T04:45:22;11.93;;;10.30;;
8232;SDS011;4157;48.074;9.952;2024-03-06T04:47:50;11.77;;;10.50;;
8232;SDS011;4157;48.074;9.952;2024-03-06T04:50:18;12.90;;;10.98;;
8232;SDS011;4157;48.074;9.952;2024-03-06T04:52:45;14.15;;;11.80;;
8232;SDS011;4157;48.074;9.952;2024-03-06T04:55:13;12.18;;;9.95;;
8232;SDS011;4157;48.074;9.952;2024-03-06T04:57:47;17.50;;;11.60;;
8232;SDS011;4157;48.074;9.952;2024-03-06T05:00:14;11.13;;;9.88;;
8232;SDS011;4157;48.074;9.952;2024-03-06T05:02:43;12.48;;;11.18;;
8232;SDS011;4157;48.074;9.952;2024-03-06T05:05:11;13.65;;;12.15;;
8232;SDS011;4157;48.074;9.952;2024-03-06T05:07:39;12.45;;;11.15;;
8232;SDS011;4157;48.074;9.952;2024-03-06T05:10:07;14.45;;;11.98;;
8232;SDS011;4157;48.074;9.952;2024-03-06T05:12:35;13.13;;;11.68;;
8232;SDS011;4157;48.074;9.952;2024-03-06T05:15:04;12.70;;;10.93;;
8232;SDS011;4157;48.074;9.952;2024-03-06T05:17:33;12.75;;;10.77;;
8232;SDS011;4157;48.074;9.952;2024-03-06T05:20:01;11.88;;;10.70;;
8232;SDS011;4157;48.074;9.952;2024-03-06T05:22:29;13.65;;;10.88;;
8232;SDS011;4157;48.074;9.952;2024-03-06T05:24:57;13.60;;;12.10;;
8232;SDS011;4157;48.074;9.952;2024-03-06T05:27:25;13.02;;;11.63;;
8232;SDS011;4157;48.074;9.952;2024-03-06T05:29:53;13.07;;;11.68;;
8232;SDS011;4157;48.074;9.952;2024-03-06T05:32:22;13.60;;;12.02;;
8232;SDS011;4157;48.074;9.952;2024-03-06T05:34:50;18.25;;;16.40;;
8232;SDS011;4157;48.074;9.952;2024-03-06T05:37:18;15.10;;;13.60;;
8232;SDS011;4157;48.074;9.952;2024-03-06T05:39:45;14.50;;;13.10;;
8232;SDS011;4157;48.074;9.952;2024-03-06T05:42:13;14.23;;;12.93;;
8232;SDS011;4157;48.074;9.952;2024-03-06T05:44:40;14.15;;;12.77;;
8232;SDS011;4157;48.074;9.952;2024-03-06T05:47:08;14.40;;;13.00;;
8232;SDS011;4157;48.074;9.952;2024-03-06T05:49:37;16.20;;;14.50;;
8232;SDS011;4157;48.074;9.952;2024-03-06T05:52:05;14.63;;;13.23;;
8232;SDS011;4157;48.074;9.952;2024-03-06T05:54:32;12.65;;;11.45;;
8232;SDS011;4157;48.074;9.952;2024-03-06T05:57:00;12.13;;;10.88;;
8232;SDS011;4157;48.074;9.952;2024-03-06T05:59:28;13.10;;;11.48;;
8232;SDS011;4157;48.074;9.952;2024-03-06T06:01:56;12.05;;;10.85;;
8232;SDS011;4157;48.074;9.952;2024-03-06T06:04:24;13.20;;;11.63;;
8232;SDS011;4157;48.074;9.952;2024-03-06T06:06:53;13.07;;;11.77;;
8232;SDS011;4157;48.074;9.952;2024-03-06T06:09:20;11.65;;;10.27;;
8232;SDS011;4157;48.074;9.952;2024-03-06T06:11:48;12.50;;;11.20;;
8232;SDS011;4157;48.074;9.952;2024-03-06T06:14:16;12.45;;;10.93;;
8232;SDS011;4157;48.074;9.952;2024-03-06T06:16:43;12.63;;;11.32;;
8232;SDS011;4157;48.074;9.952;2024-03-06T06:19:11;12.05;;;10.77;;
8232;SDS011;4157;48.074;9.952;2024-03-06T06:21:39;15.60;;;12.68;;
8232;SDS011;4157;48.074;9.952;2024-03-06T06:24:08;12.50;;;11.25;;
8232;SDS011;4157;48.074;9.952;2024-03-06T06:26:36;13.85;;;12.35;;
8232;SDS011;4157;48.074;9.952;2024-03-06T06:29:03;12.55;;;10.50;;
8232;SDS011;4157;48.074;9.952;2024-03-06T06:31:31;11.82;;;10.57;;
8232;SDS011;4157;48.074;9.952;2024-03-06T06:33:58;12.98;;;11.68;;
8232;SDS011;4157;48.074;9.952;2024-03-06T06:36:26;12.35;;;11.05;;
8232;SDS011;4157;48.074;9.952;2024-03-06T06:38:55;12.50;;;11.20;;
8232;SDS011;4157;48.074;9.952;2024-03-06T06:41:24;12.57;;;11.27;;
8232;SDS011;4157;48.074;9.952;2024-03-06T06:43:52;12.00;;;10.27;;
8232;SDS011;4157;48.074;9.952;2024-03-06T06:46:19;12.93;;;11.63;;
8232;SDS011;4157;48.074;9.952;2024-03-06T06:48:47;11.45;;;10.25;;
8232;SDS011;4157;48.074;9.952;2024-03-06T06:51:15;12.50;;;11.15;;
8232;SDS011;4157;48.074;9.952;2024-03-06T06:53:43;12.30;;;10.30;;
8232;SDS011;4157;48.074;9.952;2024-03-06T06:56:10;10.93;;;9.05;;
8232;SDS011;4157;48.074;9.952;2024-03-06T06:58:39;9.07;;;8.10;;
8232;SDS011;4157;48.074;9.952;2024-03-06T07:01:09;9.95;;;8.85;;
8232;SDS011;4157;48.074;9.952;2024-03-06T07:03:36;9.30;;;8.38;;
8232;SDS011;4157;48.074;9.952;2024-03-06T07:06:04;9.27;;;8.38;;
8232;SDS011;4157;48.074;9.952;2024-03-06T07:08:32;10.30;;;8.93;;
8232;SDS011;4157;48.074;9.952;2024-03-06T07:11:00;10.15;;;8.88;;
8232;SDS011;4157;48.074;9.952;2024-03-06T07:13:28;11.88;;;9.73;;
8232;SDS011;4157;48.074;9.952;2024-03-06T07:15:57;9.55;;;7.80;;
8232;SDS011;4157;48.074;9.952;2024-03-06T07:18:25;9.43;;;7.95;;
8232;SDS011;4157;48.074;9.952;2024-03-06T07:20:52;9.32;;;8.30;;
8232;SDS011;4157;48.074;9.952;2024-03-06T07:23:20;9.07;;;8.10;;
8232;SDS011;4157;48.074;9.952;2024-03-06T07:25:48;9.00;;;7.97;;
8232;SDS011;4157;48.074;9.952;2024-03-06T07:28:16;9.30;;;8.30;;
8232;SDS011;4157;48.074;9.952;2024-03-06T07:30:44;8.50;;;7.60;;
8232;SDS011;4157;48.074;9.952;2024-03-06T07:33:14;10.85;;;7.80;;
8232;SDS011;4157;48.074;9.952;2024-03-06T07:35:41;9.57;;;8.38;;
8232;SDS011;4157;48.074;9.952;2024-03-06T07:38:09;9.95;;;8.15;;
8232;SDS011;4157;48.074;9.952;2024-03-06T07:40:37;9.45;;;8.43;;
8232;SDS011;4157;48.074;9.952;2024-03-06T07:43:04;10.40;;;8.35;;
8232;SDS011;4157;48.074;9.952;2024-03-06T07:45:32;11.57;;;9.35;;
8232;SDS011;4157;48.074;9.952;2024-03-06T07:48:00;9.82;;;8.80;;
8232;SDS011;4157;48.074;9.952;2024-03-06T07:50:29;9.30;;;8.30;;
8232;SDS011;4157;48.074;9.952;2024-03-06T07:52:56;9.23;;;8.23;;
8232;SDS011;4157;48.074;9.952;2024-03-06T07:55:25;8.57;;;7.68;;
8232;SDS011;4157;48.074;9.952;2024-03-06T07:57:53;10.15;;;9.00;;
8232;SDS011;4157;48.074;9.952;2024-03-06T08:00:20;9.50;;;8.52;;
8232;SDS011;4157;48.074;9.952;2024-03-06T08:02:48;9.25;;;8.30;;
8232;SDS011;4157;48.074;9.952;2024-03-06T08:05:16;10.52;;;9.43;;
8232;SDS011;4157;48.074;9.952;2024-03-06T08:07:46;9.90;;;8.15;;
8232;SDS011;4157;48.074;9.952;2024-03-06T08:10:13;10.32;;;9.23;;
8232;SDS011;4157;48.074;9.952;2024-03-06T08:12:44;9.75;;;8.75;;
8232;SDS011;4157;48.074;9.952;2024-03-06T08:15:13;10.35;;;9.25;;
8232;SDS011;4157;48.074;9.952;2024-03-06T08:17:41;11.82;;;9.43;;
8232;SDS011;4157;48.074;9.952;2024-03-06T08:20:08;9.88;;;8.88;;
8232;SDS011;4157;48.074;9.952;2024-03-06T08:22:37;9.77;;;8.75;;
8232;SDS011;4157;48.074;9.952;2024-03-06T08:25:07;9.70;;;8.50;;
8232;SDS011;4157;48.074;9.952;2024-03-06T08:27:36;9.68;;;8.40;;
8232;SDS011;4157;48.074;9.952;2024-03-06T08:30:04;8.52;;;7.45;;
8232;SDS011;4157;48.074;9.952;2024-03-06T08:32:32;9.52;;;8.52;;
8232;SDS011;4157;48.074;9.952;2024-03-06T08:35:02;9.02;;;8.13;;
8232;SDS011;4157;48.074;9.952;2024-03-06T08:37:31;9.43;;;8.23;;
8232;SDS011;4157;48.074;9.952;2024-03-06T08:39:59;9.27;;;7.60;;
8232;SDS011;4157;48.074;9.952;2024-03-06T08:42:28;8.48;;;7.55;;
8232;SDS011;4157;48.074;9.952;2024-03-06T08:44:56;8.73;;;7.75;;
8232;SDS011;4157;48.074;9.952;2024-03-06T08:47:23;8.07;;;7.13;;
8232;SDS011;4157;48.074;9.952;2024-03-06T08:49:51;8.70;;;7.80;;
8232;SDS011;4157;48.074;9.952;2024-03-06T08:52:19;9.23;;;8.32;;
8232;SDS011;4157;48.074;9.952;2024-03-06T08:54:47;8.45;;;7.38;;
8232;SDS011;4157;48.074;9.952;2024-03-06T08:57:15;8.57;;;7.53;;
8232;SDS011;4157;48.074;9.952;2024-03-06T08:59:44;8.77;;;7.68;;
8232;SDS011;4157;48.074;9.952;2024-03-06T09:02:12;8.75;;;7.50;;
8232;SDS011;4157;48.074;9.952;2024-03-06T09:04:39;8.80;;;7.72;;
8232;SDS011;4157;48.074;9.952;2024-03-06T09:07:07;8.40;;;7.50;;
8232;SDS011;4157;48.074;9.952;2024-03-06T09:09:35;9.27;;;7.70;;
8232;SDS011;4157;48.074;9.952;2024-03-06T09:12:03;8.55;;;7.65;;
8232;SDS011;4157;48.074;9.952;2024-03-06T09:14:31;8.20;;;7.30;;
8232;SDS011;4157;48.074;9.952;2024-03-06T09:17:00;8.73;;;7.82;;
8232;SDS011;4157;48.074;9.952;2024-03-06T09:19:28;8.75;;;7.85;;
8232;SDS011;4157;48.074;9.952;2024-03-06T09:21:56;8.95;;;8.05;;
8232;SDS011;4157;48.074;9.952;2024-03-06T09:24:24;8.80;;;7.82;;
8232;SDS011;4157;48.074;9.952;2024-03-06T09:26:51;8.45;;;7.55;;
8232;SDS011;4157;48.074;9.952;2024-03-06T09:29:19;9.52;;;8.52;;
8232;SDS011;4157;48.074;9.952;2024-03-06T09:31:47;9.52;;;8.32;;
8232;SDS011;4157;48.074;9.952;2024-03-06T09:34:16;9.80;;;8.80;;
8232;SDS011;4157;48.074;9.952;2024-03-06T09:36:45;9.50;;;7.90;;
8232;SDS011;4157;48.074;9.952;2024-03-06T09:39:13;8.15;;;7.32;;
8232;SDS011;4157;48.074;9.952;2024-03-06T09:41:42;8.18;;;7.05;;
8232;SDS011;4157;48.074;9.952;2024-03-06T09:44:10;7.63;;;6.85;;
8232;SDS011;4157;48.074;9.952;2024-03-06T09:46:40;8.02;;;7.22;;
8232;SDS011;4157;48.074;9.952;2024-03-06T09:49:08;9.05;;;7.88;;
8232;SDS011;4157;48.074;9.952;2024-03-06T09:51:37;8.43;;;7.47;;
8232;SDS011;4157;48.074;9.952;2024-03-06T09:54:06;8.15;;;7.30;;
8232;SDS011;4157;48.074;9.952;2024-03-06T09:56:35;7.63;;;6.72;;
8232;SDS011;4157;48.074;9.952;2024-03-06T09:59:02;8.32;;;7.40;;
8232;SDS011;4157;48.074;9.952;2024-03-06T10:01:31;7.07;;;6.32;;
8232;SDS011;4157;48.074;9.952;2024-03-06T10:03:59;8.05;;;6.65;;
8232;SDS011;4157;48.074;9.952;2024-03-06T10:06:26;7.82;;;6.43;;
8232;SDS011;4157;48.074;9.952;2024-03-06T10:09:03;7.80;;;6.72;;
8232;SDS011;4157;48.074;9.952;2024-03-06T10:11:38;7.05;;;6.35;;
8232;SDS011;4157;48.074;9.952;2024-03-06T10:14:05;7.30;;;5.88;;
8232;SDS011;4157;48.074;9.952;2024-03-06T10:16:33;7.65;;;6.55;;
8232;SDS011;4157;48.074;9.952;2024-03-06T10:19:14;7.00;;;5.93;;
8232;SDS011;4157;48.074;9.952;2024-03-06T10:21:42;7.00;;;5.95;;
8232;SDS011;4157;48.074;9.952;2024-03-06T10:24:12;6.75;;;6.05;;
8232;SDS011;4157;48.074;9.952;2024-03-06T10:26:40;7.95;;;5.57;;
8232;SDS011;4157;48.074;9.952;2024-03-06T10:29:07;6.93;;;5.78;;
8232;SDS011;4157;48.074;9.952;2024-03-06T10:31:36;7.18;;;5.80;;
8232;SDS011;4157;48.074;9.952;2024-03-06T10:34:04;7.35;;;6.32;;
8232;SDS011;4157;48.074;9.952;2024-03-06T10:36:31;7.95;;;6.70;;
8232;SDS011;4157;48.074;9.952;2024-03-06T10:38:59;6.80;;;6.10;;
8232;SDS011;4157;48.074;9.952;2024-03-06T10:41:29;7.75;;;6.55;;
8232;SDS011;4157;48.074;9.952;2024-03-06T10:43:59;9.50;;;7.63;;
8232;SDS011;4157;48.074;9.952;2024-03-06T10:46:28;8.25;;;6.85;;
8232;SDS011;4157;48.074;9.952;2024-03-06T10:48:56;7.28;;;6.47;;
8232;SDS011;4157;48.074;9.952;2024-03-06T10:51:25;7.38;;;6.00;;
8232;SDS011;4157;48.074;9.952;2024-03-06T10:53:54;8.18;;;5.95;;
8232;SDS011;4157;48.074;9.952;2024-03-06T10:56:23;7.05;;;6.05;;
8232;SDS011;4157;48.074;9.952;2024-03-06T10:58:52;6.65;;;5.85;;
8232;SDS011;4157;48.074;9.952;2024-03-06T11:01:21;7.22;;;6.05;;
8232;SDS011;4157;48.074;9.952;2024-03-06T11:03:49;7.75;;;6.22;;
8232;SDS011;4157;48.074;9.952;2024-03-06T11:06:17;7.80;;;6.05;;
8232;SDS011;4157;48.074;9.952;2024-03-06T11:08:45;7.18;;;6.45;;
8232;SDS011;4157;48.074;9.952;2024-03-06T11:11:20;8.75;;;6.32;;
8232;SDS011;4157;48.074;9.952;2024-03-06T11:13:48;7.68;;;6.43;;
8232;SDS011;4157;48.074;9.952;2024-03-06T11:16:17;7.20;;;6.28;;
8232;SDS011;4157;48.074;9.952;2024-03-06T11:18:44;7.80;;;6.40;;
8232;SDS011;4157;48.074;9.952;2024-03-06T11:21:28;7.07;;;5.95;;
8232;SDS011;4157;48.074;9.952;2024-03-06T11:24:15;7.95;;;6.43;;
8232;SDS011;4157;48.074;9.952;2024-03-06T11:26:43;8.23;;;5.65;;
8232;SDS011;4157;48.074;9.952;2024-03-06T11:29:15;7.60;;;6.10;;
8232;SDS011;4157;48.074;9.952;2024-03-06T11:34:27;7.63;;;6.13;;
8232;SDS011;4157;48.074;9.952;2024-03-06T11:36:56;7.40;;;5.38;;
8232;SDS011;4157;48.074;9.952;2024-03-06T11:39:27;8.05;;;5.50;;
8232;SDS011;4157;48.074;9.952;2024-03-06T11:41:55;6.95;;;5.43;;
8232;SDS011;4157;48.074;9.952;2024-03-06T11:44:24;6.97;;;5.30;;
8232;SDS011;4157;48.074;9.952;2024-03-06T11:46:56;8.73;;;5.53;;
8232;SDS011;4157;48.074;9.952;2024-03-06T11:49:25;6.72;;;5.28;;
8232;SDS011;4157;48.074;9.952;2024-03-06T11:51:56;6.60;;;4.93;;
8232;SDS011;4157;48.074;9.952;2024-03-06T11:54:24;6.18;;;4.95;;
8232;SDS011;4157;48.074;9.952;2024-03-06T11:56:52;7.00;;;5.13;;
8232;SDS011;4157;48.074;9.952;2024-03-06T11:59:21;8.10;;;5.50;;
8232;SDS011;4157;48.074;9.952;2024-03-06T12:01:50;6.68;;;4.93;;
8232;SDS011;4157;48.074;9.952;2024-03-06T12:04:18;7.13;;;5.38;;
8232;SDS011;4157;48.074;9.952;2024-03-06T12:06:46;7.28;;;5.50;;
8232;SDS011;4157;48.074;9.952;2024-03-06T12:09:16;6.53;;;5.22;;
8232;SDS011;4157;48.074;9.952;2024-03-06T12:11:45;6.40;;;4.60;;
8232;SDS011;4157;48.074;9.952;2024-03-06T12:14:13;7.75;;;5.40;;
8232;SDS011;4157;48.074;9.952;2024-03-06T12:16:43;6.60;;;4.95;;
8232;SDS011;4157;48.074;9.952;2024-03-06T12:19:10;7.45;;;5.45;;
8232;SDS011;4157;48.074;9.952;2024-03-06T12:21:38;7.75;;;5.55;;
8232;SDS011;4157;48.074;9.952;2024-03-06T12:24:06;6.20;;;5.03;;
8232;SDS011;4157;48.074;9.952;2024-03-06T12:26:36;7.18;;;5.60;;
8232;SDS011;4157;48.074;9.952;2024-03-06T12:29:05;7.05;;;5.50;;
8232;SDS011;4157;48.074;9.952;2024-03-06T12:31:31;7.60;;;5.72;;
8232;SDS011;4157;48.074;9.952;2024-03-06T12:34:00;8.55;;;5.72;;
8232;SDS011;4157;48.074;9.952;2024-03-06T12:36:28;7.22;;;5.70;;
8232;SDS011;4157;48.074;9.952;2024-03-06T12:38:56;7.45;;;5.45;;
8232;SDS011;4157;48.074;9.952;2024-03-06T12:41:26;6.90;;;5.15;;
8232;SDS011;4157;48.074;9.952;2024-03-06T12:43:55;8.55;;;6.00;;
8232;SDS011;4157;48.074;9.952;2024-03-06T12:46:23;7.07;;;5.53;;
8232;SDS011;4157;48.074;9.952;2024-03-06T12:48:52;7.00;;;4.50;;
8232;SDS011;4157;48.074;9.952;2024-03-06T12:51:19;7.43;;;5.85;;
8232;SDS011;4157;48.074;9.952;2024-03-06T12:53:47;6.63;;;4.90;;
8232;SDS011;4157;48.074;9.952;2024-03-06T12:56:15;6.35;;;5.20;;
8232;SDS011;4157;48.074;9.952;2024-03-06T12:58:43;7.50;;;5.30;;
8232;SDS011;4157;48.074;9.952;2024-03-06T13:01:12;6.65;;;4.70;;
8232;SDS011;4157;48.074;9.952;2024-03-06T13:03:40;6.47;;;4.55;;
8232;SDS011;4157;48.074;9.952;2024-03-06T13:06:07;7.90;;;5.93;;
8232;SDS011;4157;48.074;9.952;2024-03-06T13:08:35;7.35;;;5.63;;
8232;SDS011;4157;48.074;9.952;2024-03-06T13:11:03;7.20;;;4.78;;
8232;SDS011;4157;48.074;9.952;2024-03-06T13:13:31;7.28;;;5.55;;
8232;SDS011;4157;48.074;9.952;2024-03-06T13:16:00;5.93;;;4.57;;
8232;SDS011;4157;48.074;9.952;2024-03-06T13:18:29;7.55;;;4.95;;
8232;SDS011;4157;48.074;9.952;2024-03-06T13:20:56;6.18;;;4.45;;
8232;SDS011;4157;48.074;9.952;2024-03-06T13:23:26;6.30;;;4.68;;
8232;SDS011;4157;48.074;9.952;2024-03-06T13:25:53;7.05;;;4.60;;
8232;SDS011;4157;48.074;9.952;2024-03-06T13:28:21;6.57;;;4.40;;
8232;SDS011;4157;48.074;9.952;2024-03-06T13:30:49;6.03;;;4.57;;
8232;SDS011;4157;48.074;9.952;2024-03-06T13:33:17;6.57;;;4.95;;
8232;SDS011;4157;48.074;9.952;2024-03-06T13:35:46;6.55;;;4.68;;
8232;SDS011;4157;48.074;9.952;2024-03-06T13:38:13;17.13;;;12.65;;
8232;SDS011;4157;48.074;9.952;2024-03-06T13:40:41;17.60;;;11.73;;
8232;SDS011;4157;48.074;9.952;2024-03-06T13:43:09;61.42;;;33.35;;
8232;SDS011;4157;48.074;9.952;2024-03-06T13:45:36;25.10;;;15.52;;
8232;SDS011;4157;48.074;9.952;2024-03-06T13:48:13;9.27;;;6.15;;
8232;SDS011;4157;48.074;9.952;2024-03-06T13:50:42;12.23;;;8.48;;
8232;SDS011;4157;48.074;9.952;2024-03-06T13:53:11;14.35;;;9.88;;
8232;SDS011;4157;48.074;9.952;2024-03-06T13:55:39;9.77;;;6.78;;
8232;SDS011;4157;48.074;9.952;2024-03-06T13:58:07;7.22;;;5.07;;
8232;SDS011;4157;48.074;9.952;2024-03-06T14:00:35;6.43;;;4.90;;
8232;SDS011;4157;48.074;9.952;2024-03-06T14:03:03;7.85;;;6.00;;
8232;SDS011;4157;48.074;9.952;2024-03-06T14:05:31;7.65;;;6.00;;
8232;SDS011;4157;48.074;9.952;2024-03-06T14:07:58;9.30;;;7.20;;
8232;SDS011;4157;48.074;9.952;2024-03-06T14:10:27;7.22;;;5.55;;
8232;SDS011;4157;48.074;9.952;2024-03-06T14:12:59;8.93;;;7.28;;
8232;SDS011;4157;48.074;9.952;2024-03-06T14:15:26;6.40;;;5.10;;
8232;SDS011;4157;48.074;9.952;2024-03-06T14:17:54;7.95;;;5.90;;
8232;SDS011;4157;48.074;9.952;2024-03-06T14:20:22;7.32;;;5.68;;
8232;SDS011;4157;48.074;9.952;2024-03-06T14:22:50;7.20;;;5.15;;
8232;SDS011;4157;48.074;9.952;2024-03-06T14:25:18;7.78;;;5.30;;
8232;SDS011;4157;48.074;9.952;2024-03-06T14:27:47;6.75;;;5.35;;
8232;SDS011;4157;48.074;9.952;2024-03-06T14:30:14;7.15;;;5.43;;
8232;SDS011;4157;48.074;9.952;2024-03-06T14:32:44;7.40;;;5.32;;
8232;SDS011;4157;48.074;9.952;2024-03-06T14:35:11;7.22;;;5.47;;
8232;SDS011;4157;48.074;9.952;2024-03-06T14:37:39;7.20;;;5.53;;
8232;SDS011;4157;48.074;9.952;2024-03-06T14:40:07;7.10;;;5.53;;
8232;SDS011;4157;48.074;9.952;2024-03-06T14:42:34;5.43;;;4.15;;
8232;SDS011;4157;48.074;9.952;2024-03-06T14:45:03;6.25;;;4.38;;
8232;SDS011;4157;48.074;9.952;2024-03-06T14:47:31;6.75;;;6.05;;
8232;SDS011;4157;48.074;9.952;2024-03-06T14:49:59;5.47;;;4.50;;
8232;SDS011;4157;48.074;9.952;2024-03-06T14:52:26;4.70;;;3.38;;
8232;SDS011;4157;48.074;9.952;2024-03-06T14:54:54;4.45;;;3.20;;
8232;SDS011;4157;48.074;9.952;2024-03-06T14:57:22;4.68;;;3.17;;
8232;SDS011;4157;48.074;9.952;2024-03-06T14:59:50;4.97;;;3.60;;
8232;SDS011;4157;48.074;9.952;2024-03-06T15:02:19;4.78;;;3.55;;
8232;SDS011;4157;48.074;9.952;2024-03-06T15:04:46;5.78;;;3.40;;
8232;SDS011;4157;48.074;9.952;2024-03-06T15:07:14;8.02;;;6.38;;
8232;SDS011;4157;48.074;9.952;2024-03-06T15:09:42;6.80;;;5.13;;
8232;SDS011;4157;48.074;9.952;2024-03-06T15:12:09;15.35;;;10.82;;
8232;SDS011;4157;48.074;9.952;2024-03-06T15:14:38;15.65;;;10.85;;